createdAt,value
2022-11-14T00:00:36.747Z,7.47
2022-11-14T00:03:06.127Z,11.27
2022-11-14T00:05:33.212Z,12.30
2022-11-14T00:07:59.866Z,9.97
2022-11-14T00:10:26.381Z,10.20
2022-11-14T00:12:52.839Z,11.80
2022-11-14T00:15:19.631Z,18.40
2022-11-14T00:17:46.105Z,7.83
2022-11-14T00:20:13.258Z,5.97
2022-11-14T00:22:39.750Z,9.90
2022-11-14T00:25:06.423Z,10.67
2022-11-14T00:27:32.854Z,8.00
2022-11-14T00:29:59.396Z,17.73
2022-11-14T00:32:25.858Z,12.40
2022-11-14T00:34:52.378Z,16.63
2022-11-14T00:37:18.847Z,7.23
2022-11-14T00:39:45.390Z,15.53
2022-11-14T00:42:11.894Z,8.10
2022-11-14T00:44:38.378Z,7.90
2022-11-14T00:47:04.885Z,8.80
2022-11-14T00:49:31.409Z,10.70
2022-11-14T00:51:57.897Z,8.43
2022-11-14T00:54:26.708Z,9.40
2022-11-14T00:56:53.184Z,8.63
2022-11-14T00:59:19.662Z,10.00
2022-11-14T01:01:46.162Z,11.83
2022-11-14T01:04:12.609Z,11.83
2022-11-14T01:06:39.123Z,7.47
2022-11-14T01:09:05.636Z,5.83
2022-11-14T01:11:32.193Z,13.37
2022-11-14T01:13:58.686Z,9.97
2022-11-14T01:16:25.260Z,9.70
2022-11-14T01:18:51.765Z,8.27
2022-11-14T01:21:18.293Z,7.07
2022-11-14T01:23:44.780Z,5.83
2022-11-14T01:26:13.018Z,5.83
2022-11-14T01:28:40.138Z,7.30
2022-11-14T01:31:11.319Z,8.53
2022-11-14T01:33:37.906Z,6.87
2022-11-14T01:36:05.320Z,14.40
2022-11-14T01:38:32.156Z,11.07
2022-11-14T01:40:59.250Z,11.10
2022-11-14T01:43:28.036Z,10.33
2022-11-14T01:46:02.440Z,10.23
2022-11-14T01:48:58.385Z,10.73
2022-11-14T01:51:39.924Z,6.60
2022-11-14T01:54:12.367Z,8.83
2022-11-14T01:56:50.219Z,7.60
2022-11-14T01:59:23.245Z,7.83
2022-11-14T02:01:51.961Z,14.90
2022-11-14T02:04:22.517Z,4.33
2022-11-14T02:06:49.572Z,8.80
2022-11-14T02:09:16.349Z,5.37
2022-11-14T02:11:44.870Z,7.70
2022-11-14T02:14:12.085Z,5.27
2022-11-14T02:16:40.275Z,4.30
2022-11-14T02:19:07.014Z,12.93
2022-11-14T02:21:33.497Z,16.40
2022-11-14T02:24:00.038Z,13.50
2022-11-14T02:26:26.561Z,8.80
2022-11-14T02:28:53.347Z,7.40
2022-11-14T02:31:19.843Z,8.33
2022-11-14T02:33:46.383Z,17.13
2022-11-14T02:36:12.852Z,4.73
2022-11-14T02:38:39.404Z,3.77
2022-11-14T02:41:05.872Z,11.13
2022-11-14T02:43:32.474Z,5.97
2022-11-14T02:46:04.308Z,12.63
2022-11-14T02:48:32.303Z,9.03
2022-11-14T02:50:59.168Z,13.73
2022-11-14T02:53:25.687Z,10.33
2022-11-14T02:55:52.250Z,12.20
2022-11-14T02:58:18.766Z,6.97
2022-11-14T03:01:13.486Z,8.17
2022-11-14T03:03:31.789Z,5.40
2022-11-14T03:06:01.829Z,5.70
2022-11-14T03:08:28.743Z,7.23
2022-11-14T03:10:56.035Z,9.67
2022-11-14T03:13:22.843Z,9.70
2022-11-14T03:15:49.359Z,7.63
2022-11-14T03:18:15.848Z,5.03
2022-11-14T03:20:42.317Z,6.87
2022-11-14T03:23:08.944Z,9.57
2022-11-14T03:25:35.411Z,10.23
2022-11-14T03:28:01.895Z,9.43
2022-11-14T03:30:28.329Z,9.67
2022-11-14T03:32:56.394Z,4.50
2022-11-14T03:35:23.431Z,3.40
2022-11-14T03:37:52.752Z,6.13
2022-11-14T03:40:22.547Z,3.47
2022-11-14T03:42:49.018Z,10.63
2022-11-14T03:45:15.511Z,4.67
2022-11-14T03:47:42.016Z,7.13
2022-11-14T03:50:08.583Z,13.20
2022-11-14T03:52:35.099Z,9.37
2022-11-14T03:55:01.560Z,7.57
2022-11-14T03:57:28.097Z,6.37
2022-11-14T03:59:54.664Z,10.80
2022-11-14T04:02:21.180Z,7.10
2022-11-14T04:04:47.903Z,6.57
2022-11-14T04:07:14.563Z,6.77
2022-11-14T04:09:41.147Z,9.73
2022-11-14T04:12:11.358Z,12.70
2022-11-14T04:14:41.919Z,10.20
2022-11-14T04:17:08.475Z,7.80
2022-11-14T04:19:35.219Z,9.83
2022-11-14T04:22:02.056Z,11.37
2022-11-14T04:24:28.619Z,10.03
2022-11-14T04:26:55.167Z,8.83
2022-11-14T04:29:21.639Z,5.30
2022-11-14T04:31:48.193Z,6.87
2022-11-14T04:34:14.677Z,12.97
2022-11-14T04:36:41.167Z,10.30
2022-11-14T04:39:07.693Z,6.10
2022-11-14T04:41:34.129Z,8.93
2022-11-14T04:44:00.623Z,7.10
2022-11-14T04:46:27.169Z,10.00
2022-11-14T04:48:53.690Z,4.97
2022-11-14T04:51:20.209Z,8.60
2022-11-14T04:53:46.742Z,8.57
2022-11-14T04:56:13.228Z,14.83
2022-11-14T04:58:39.718Z,9.87
2022-11-14T05:01:10.627Z,13.40
2022-11-14T05:03:37.446Z,14.00
2022-11-14T05:06:04.275Z,16.63
2022-11-14T05:08:31.073Z,7.40
2022-11-14T05:10:57.990Z,8.40
2022-11-14T05:13:24.423Z,8.33
2022-11-14T05:15:51.212Z,7.47
2022-11-14T05:18:17.704Z,5.70
2022-11-14T05:20:44.361Z,9.83
2022-11-14T05:23:19.871Z,10.83
2022-11-14T05:25:46.518Z,12.53
2022-11-14T05:28:13.512Z,9.57
2022-11-14T05:30:40.024Z,14.13
2022-11-14T05:33:06.520Z,9.00
2022-11-14T05:35:32.981Z,7.20
2022-11-14T05:38:01.882Z,6.57
2022-11-14T05:40:28.387Z,9.13
2022-11-14T05:42:56.924Z,9.70
2022-11-14T05:45:23.362Z,15.50
2022-11-14T05:47:49.833Z,7.60
2022-11-14T05:50:16.303Z,8.57
2022-11-14T05:52:42.919Z,14.80
2022-11-14T05:55:09.496Z,17.40
2022-11-14T05:57:36.153Z,17.97
2022-11-14T06:00:04.590Z,6.60
2022-11-14T06:02:31.179Z,11.33
2022-11-14T06:04:57.641Z,12.10
2022-11-14T06:07:24.150Z,9.00
2022-11-14T06:09:50.662Z,7.23
2022-11-14T06:12:17.156Z,11.43
2022-11-14T06:14:43.608Z,12.90
2022-11-14T06:17:10.057Z,12.03
2022-11-14T06:19:36.476Z,6.67
2022-11-14T06:22:02.986Z,31.07
2022-11-14T06:24:29.440Z,10.17
2022-11-14T06:26:55.969Z,10.50
2022-11-14T06:29:22.434Z,8.40
2022-11-14T06:31:48.910Z,7.60
2022-11-14T06:34:15.499Z,15.20
2022-11-14T06:36:41.983Z,14.13
2022-11-14T06:39:08.523Z,6.23
2022-11-14T06:41:35.016Z,8.37
2022-11-14T06:44:01.529Z,12.47
2022-11-14T06:46:28.119Z,6.40
2022-11-14T06:48:54.603Z,5.70
2022-11-14T06:51:21.165Z,10.03
2022-11-14T06:53:47.760Z,10.20
2022-11-14T06:56:16.478Z,11.60
2022-11-14T06:58:48.567Z,13.30
2022-11-14T07:01:21.832Z,7.33
2022-11-14T07:03:49.099Z,11.87
2022-11-14T07:06:17.972Z,13.37
2022-11-14T07:08:44.428Z,13.63
2022-11-14T07:11:22.934Z,18.10
2022-11-14T07:13:58.245Z,12.77
2022-11-14T07:16:35.366Z,14.83
2022-11-14T07:19:05.222Z,9.03
2022-11-14T07:21:32.363Z,9.10
2022-11-14T07:23:58.863Z,5.97
2022-11-14T07:26:25.972Z,7.30
2022-11-14T07:28:55.498Z,10.10
2022-11-14T07:31:24.515Z,14.30
2022-11-14T07:33:50.998Z,14.23
2022-11-14T07:36:17.627Z,11.27
2022-11-14T07:38:44.258Z,10.37
2022-11-14T07:41:13.321Z,8.40
2022-11-14T07:43:40.071Z,13.23
2022-11-14T07:46:12.405Z,7.07
2022-11-14T07:48:38.917Z,5.60
2022-11-14T07:51:08.388Z,13.43
2022-11-14T07:53:35.427Z,14.77
2022-11-14T07:56:05.150Z,8.97
2022-11-14T07:58:31.974Z,9.97
2022-11-14T08:01:02.947Z,8.60
2022-11-14T08:03:29.426Z,24.27
2022-11-14T08:06:03.641Z,9.20
2022-11-14T08:08:30.412Z,10.43
2022-11-14T08:10:58.669Z,6.77
2022-11-14T08:13:32.212Z,9.53
2022-11-14T08:16:02.579Z,6.20
2022-11-14T08:18:29.470Z,4.73
2022-11-14T08:20:57.670Z,8.50
2022-11-14T08:23:24.271Z,12.43
2022-11-14T08:25:51.161Z,9.03
2022-11-14T08:28:17.665Z,9.50
2022-11-14T08:30:44.349Z,8.53
2022-11-14T08:33:10.834Z,8.87
2022-11-14T08:35:37.334Z,6.87
2022-11-14T08:38:03.896Z,4.87
2022-11-14T08:40:30.616Z,5.10
2022-11-14T08:43:01.816Z,9.70
2022-11-14T08:45:29.453Z,8.20
2022-11-14T08:47:56.145Z,5.03
2022-11-14T08:50:23.065Z,5.00
2022-11-14T08:52:51.153Z,10.90
2022-11-14T08:55:18.512Z,12.20
2022-11-14T08:57:49.177Z,5.03
2022-11-14T09:00:17.275Z,11.07
2022-11-14T09:02:43.843Z,8.13
2022-11-14T09:05:10.650Z,8.10
2022-11-14T09:07:37.320Z,9.70
2022-11-14T09:10:04.446Z,6.30
2022-11-14T09:12:30.955Z,6.00
2022-11-14T09:14:57.697Z,9.83
2022-11-14T09:17:24.259Z,10.70
2022-11-14T09:19:50.711Z,9.53
2022-11-14T09:22:17.632Z,4.23
2022-11-14T09:24:47.671Z,7.30
2022-11-14T09:27:14.393Z,7.03
2022-11-14T09:29:40.962Z,6.93
2022-11-14T09:32:07.715Z,5.43
2022-11-14T09:34:34.196Z,5.27
2022-11-14T09:37:00.759Z,11.80
2022-11-14T09:39:27.314Z,7.60
2022-11-14T09:42:21.554Z,12.70
2022-11-14T09:44:50.153Z,9.33
2022-11-14T09:47:29.529Z,8.17
2022-11-14T09:50:06.300Z,8.73
2022-11-14T09:52:39.193Z,7.17
2022-11-14T09:55:20.612Z,8.73
2022-11-14T09:57:47.668Z,5.80
2022-11-14T10:00:14.993Z,7.87
2022-11-14T10:02:44.782Z,5.57
2022-11-14T10:05:44.268Z,11.93
2022-11-14T10:08:34.222Z,7.77
2022-11-14T10:11:17.401Z,8.13
2022-11-14T10:13:46.933Z,5.70
2022-11-14T10:16:38.215Z,5.47
2022-11-14T10:19:22.404Z,9.80
2022-11-14T10:22:04.963Z,6.63
2022-11-14T10:25:10.949Z,7.40
2022-11-14T10:27:55.884Z,6.77
2022-11-14T10:30:25.322Z,15.50
2022-11-14T10:33:39.289Z,12.50
2022-11-14T10:36:25.025Z,6.43
2022-11-14T10:39:02.194Z,13.03
2022-11-14T10:41:55.123Z,7.33
2022-11-14T10:44:19.735Z,5.10
2022-11-14T10:46:50.011Z,12.93
2022-11-14T10:49:22.396Z,5.10
2022-11-14T10:52:00.175Z,3.63
2022-11-14T10:54:45.355Z,8.40
2022-11-14T10:57:19.646Z,9.50
2022-11-14T10:59:47.325Z,6.03
2022-11-14T11:02:14.466Z,7.47
2022-11-14T11:04:42.877Z,4.93
2022-11-14T11:10:35.373Z,7.53
2022-11-14T11:13:02.057Z,8.60
2022-11-14T11:15:31.691Z,9.03
2022-11-14T11:17:59.266Z,9.77
2022-11-14T11:20:28.454Z,5.63
2022-11-14T11:23:07.555Z,5.67
2022-11-14T11:25:34.484Z,10.60
2022-11-14T11:28:10.155Z,9.90
2022-11-14T11:30:36.990Z,8.53
2022-11-14T11:33:21.975Z,9.83
2022-11-14T11:35:49.772Z,6.20
2022-11-14T11:38:20.117Z,8.30
2022-11-14T11:40:49.352Z,6.40
2022-11-14T11:43:42.357Z,7.90
2022-11-14T11:46:16.726Z,7.60
2022-11-14T11:48:46.367Z,12.83
2022-11-14T11:51:17.299Z,3.60
2022-11-14T11:53:47.745Z,6.30
2022-11-14T11:56:24.912Z,4.03
2022-11-14T11:58:55.471Z,4.93
2022-11-14T12:01:22.083Z,3.30
2022-11-14T12:03:50.926Z,5.80
2022-11-14T12:06:27.340Z,4.90
2022-11-14T12:09:18.429Z,6.93
2022-11-14T12:11:50.762Z,4.40
2022-11-14T12:14:54.371Z,5.70
2022-11-14T12:17:38.734Z,7.60
2022-11-14T12:20:30.869Z,7.17
2022-11-14T12:23:14.365Z,12.57
2022-11-14T12:26:14.495Z,8.17
2022-11-14T12:29:04.780Z,16.50
2022-11-14T12:31:33.886Z,11.33
2022-11-14T12:34:22.557Z,5.77
2022-11-14T12:36:49.139Z,8.30
2022-11-14T12:39:26.982Z,7.83
2022-11-14T12:42:04.869Z,7.27
2022-11-14T12:44:39.062Z,9.77
2022-11-14T12:47:05.655Z,8.50
2022-11-14T12:49:47.403Z,15.53
2022-11-14T12:52:36.932Z,19.93
2022-11-14T12:55:03.743Z,13.30
2022-11-14T12:57:50.092Z,18.80
2022-11-14T13:00:17.242Z,13.20
2022-11-14T13:03:00.616Z,3.87
2022-11-14T13:05:46.772Z,10.37
2022-11-14T13:08:45.755Z,11.10
2022-11-14T13:12:02.275Z,18.43
2022-11-14T13:14:49.559Z,5.30
2022-11-14T13:17:34.787Z,6.27
2022-11-14T13:20:22.399Z,11.67
2022-11-14T13:22:48.849Z,10.93
2022-11-14T13:25:20.364Z,11.50
2022-11-14T13:31:15.951Z,11.00
2022-11-14T13:33:44.832Z,9.80
2022-11-14T13:36:27.567Z,13.77
2022-11-14T13:38:59.880Z,8.00
2022-11-14T13:41:53.031Z,7.00
2022-11-14T13:44:37.015Z,7.93
2022-11-14T13:47:18.240Z,4.97
2022-11-14T13:50:08.249Z,15.67
2022-11-14T13:52:41.078Z,8.97
2022-11-14T13:55:08.357Z,7.90
2022-11-14T13:58:03.848Z,14.00
2022-11-14T14:00:46.082Z,12.53
2022-11-14T14:03:34.339Z,18.67
2022-11-14T14:06:19.480Z,10.17
2022-11-14T14:09:00.706Z,8.57
2022-11-14T14:11:41.637Z,8.13
2022-11-14T14:14:19.277Z,7.10
2022-11-14T14:16:56.231Z,9.03
2022-11-14T14:19:40.119Z,10.90
2022-11-14T14:22:19.097Z,12.93
2022-11-14T14:25:07.962Z,7.17
2022-11-14T14:28:15.792Z,19.70
2022-11-14T14:31:01.508Z,6.80
2022-11-14T14:33:28.148Z,6.97
2022-11-14T14:35:54.712Z,6.90
2022-11-14T14:38:26.152Z,5.17
2022-11-14T14:40:55.373Z,8.50
2022-11-14T14:43:33.114Z,10.73
2022-11-14T14:45:59.644Z,8.80
2022-11-14T14:48:28.166Z,8.37
2022-11-14T14:50:56.426Z,6.87
2022-11-14T14:53:24.037Z,5.20
2022-11-14T14:55:59.254Z,13.90
2022-11-14T14:58:30.873Z,6.20
2022-11-14T15:01:03.237Z,12.00
2022-11-14T15:03:37.141Z,10.60
2022-11-14T15:06:21.292Z,11.73
2022-11-14T15:08:48.278Z,14.73
2022-11-14T15:11:15.557Z,12.00
2022-11-14T15:13:42.869Z,11.50
2022-11-14T15:16:09.733Z,6.73
2022-11-14T15:18:36.784Z,12.40
2022-11-14T15:21:24.822Z,22.33
2022-11-14T15:24:18.371Z,18.60
2022-11-14T15:26:49.907Z,20.70
2022-11-14T15:29:20.218Z,14.00
2022-11-14T15:32:05.231Z,20.53
2022-11-14T15:34:34.078Z,11.20
2022-11-14T15:37:18.647Z,13.00
2022-11-14T15:39:46.299Z,15.07
2022-11-14T15:42:20.243Z,16.47
2022-11-14T15:44:47.133Z,23.67
2022-11-14T15:47:20.591Z,21.20
2022-11-14T15:49:58.613Z,24.50
2022-11-14T15:52:36.901Z,18.00
2022-11-14T15:55:08.799Z,20.60
2022-11-14T15:57:35.421Z,90.33
2022-11-14T16:00:02.532Z,57.13
2022-11-14T16:02:31.583Z,56.07
2022-11-14T16:04:58.976Z,17.53
2022-11-14T16:07:25.644Z,12.93
2022-11-14T16:09:52.339Z,17.93
2022-11-14T16:12:18.766Z,17.40
2022-11-14T16:14:45.254Z,14.63
2022-11-14T16:17:16.612Z,26.27
2022-11-14T16:19:43.158Z,19.80
2022-11-14T16:22:12.316Z,24.63
2022-11-14T16:24:38.871Z,22.93
2022-11-14T16:27:05.521Z,25.63
2022-11-14T16:29:32.003Z,24.57
2022-11-14T16:31:58.583Z,22.17
2022-11-14T16:34:26.017Z,15.07
2022-11-14T16:37:00.414Z,23.27
2022-11-14T16:39:27.016Z,21.40
2022-11-14T16:41:53.651Z,23.53
2022-11-14T16:44:20.545Z,25.87
2022-11-14T16:46:47.116Z,20.00
2022-11-14T16:49:17.425Z,11.40
2022-11-14T16:51:49.483Z,36.03
2022-11-14T16:54:18.327Z,24.20
2022-11-14T16:56:45.219Z,24.10
2022-11-14T16:59:11.892Z,23.80
2022-11-14T17:01:39.018Z,21.10
2022-11-14T17:04:05.785Z,62.40
2022-11-14T17:06:32.400Z,55.47
2022-11-14T17:08:59.818Z,47.63
2022-11-14T17:11:26.931Z,32.70
2022-11-14T17:13:55.904Z,35.10
2022-11-14T17:16:22.836Z,24.67
2022-11-14T17:18:55.779Z,30.93
2022-11-14T17:21:22.956Z,31.10
2022-11-14T17:24:02.840Z,24.47
2022-11-14T17:26:29.642Z,26.27
2022-11-14T17:28:56.074Z,22.00
2022-11-14T17:31:22.542Z,21.90
2022-11-14T17:33:53.426Z,23.10
2022-11-14T17:36:20.689Z,37.63
2022-11-14T17:38:47.371Z,26.50
2022-11-14T17:41:13.997Z,15.10
2022-11-14T17:43:40.887Z,21.37
2022-11-14T17:46:14.216Z,22.23
2022-11-14T17:48:43.018Z,24.87
2022-11-14T17:51:12.090Z,18.93
2022-11-14T17:53:39.080Z,19.30
2022-11-14T17:56:07.842Z,22.10
2022-11-14T17:58:35.029Z,34.00
2022-11-14T18:01:01.880Z,29.00
2022-11-14T18:03:28.511Z,22.40
2022-11-14T18:06:05.395Z,37.93
2022-11-14T18:08:32.425Z,25.23
2022-11-14T18:11:01.435Z,34.03
2022-11-14T18:13:28.140Z,31.40
2022-11-14T18:15:54.696Z,32.50
2022-11-14T18:18:21.298Z,29.17
2022-11-14T18:20:47.806Z,21.17
2022-11-14T18:23:14.391Z,29.93
2022-11-14T18:25:40.875Z,21.73
2022-11-14T18:28:07.354Z,34.00
2022-11-14T18:30:41.285Z,46.67
2022-11-14T18:33:08.679Z,43.50
2022-11-14T18:35:35.233Z,43.73
2022-11-14T18:38:01.684Z,33.93
2022-11-14T18:40:28.173Z,33.73
2022-11-14T18:42:54.690Z,22.80
2022-11-14T18:45:21.210Z,33.13
2022-11-14T18:47:47.711Z,27.83
2022-11-14T18:50:14.285Z,20.03
2022-11-14T18:52:40.731Z,22.50
2022-11-14T18:55:08.127Z,18.97
2022-11-14T18:57:34.662Z,21.87
2022-11-14T19:00:01.189Z,24.27
2022-11-14T19:02:27.834Z,25.90
2022-11-14T19:04:54.334Z,29.77
2022-11-14T19:07:20.942Z,32.70
2022-11-14T19:09:47.537Z,22.90
2022-11-14T19:12:22.023Z,26.70
2022-11-14T19:14:50.852Z,40.03
2022-11-14T19:17:22.475Z,42.03
2022-11-14T19:19:50.300Z,34.53
2022-11-14T19:22:17.176Z,40.37
2022-11-14T19:24:45.086Z,23.00
2022-11-14T19:27:11.722Z,21.80
2022-11-14T19:29:38.338Z,23.40
2022-11-14T19:32:05.441Z,30.83
2022-11-14T19:34:32.045Z,24.17
2022-11-14T19:37:00.442Z,30.27
2022-11-14T19:39:27.703Z,28.93
2022-11-14T19:41:54.128Z,34.80
2022-11-14T19:44:20.825Z,20.13
2022-11-14T19:46:48.191Z,26.93
2022-11-14T19:49:14.934Z,21.83
2022-11-14T19:51:41.439Z,26.57
2022-11-14T19:54:10.121Z,17.13
2022-11-14T19:56:36.907Z,21.80
2022-11-14T19:59:09.620Z,30.13
2022-11-14T20:01:41.635Z,28.63
2022-11-14T20:04:11.472Z,28.10
2022-11-14T20:06:38.101Z,22.20
2022-11-14T20:09:07.394Z,23.40
2022-11-14T20:11:35.689Z,23.90
2022-11-14T20:14:02.921Z,24.10
2022-11-14T20:16:31.859Z,21.50
2022-11-14T20:19:00.659Z,38.67
2022-11-14T20:21:31.892Z,26.37
2022-11-14T20:23:58.501Z,28.90
2022-11-14T20:26:25.511Z,22.50
2022-11-14T20:28:54.083Z,26.53
2022-11-14T20:31:25.959Z,23.57
2022-11-14T20:33:53.659Z,23.83
2022-11-14T20:36:26.077Z,19.40
2022-11-14T20:38:53.233Z,31.23
2022-11-14T20:41:20.547Z,18.77
2022-11-14T20:43:47.185Z,30.50
2022-11-14T20:46:19.051Z,22.77
2022-11-14T20:48:47.546Z,24.83
2022-11-14T20:51:21.901Z,23.17
2022-11-14T20:53:49.812Z,19.30
2022-11-14T20:56:17.186Z,27.23
2022-11-14T20:58:45.029Z,28.90
2022-11-14T21:01:12.280Z,31.10
2022-11-14T21:03:39.127Z,25.57
2022-11-14T21:06:07.685Z,44.47
2022-11-14T21:08:35.967Z,34.47
2022-11-14T21:11:04.914Z,28.30
2022-11-14T21:13:56.218Z,42.80
2022-11-14T21:16:26.497Z,41.70
2022-11-14T21:18:54.132Z,27.73
2022-11-14T21:21:23.689Z,22.20
2022-11-14T21:23:50.852Z,21.57
2022-11-14T21:26:19.349Z,30.17
2022-11-14T21:28:48.007Z,23.50
2022-11-14T21:31:26.170Z,25.03
2022-11-14T21:33:55.280Z,15.20
2022-11-14T21:36:43.793Z,26.30
2022-11-14T21:39:08.605Z,25.17
2022-11-14T21:41:35.151Z,22.23
2022-11-14T21:44:03.005Z,25.37
2022-11-14T21:46:29.710Z,25.37
2022-11-14T21:48:56.997Z,28.60
2022-11-14T21:51:26.529Z,29.53
2022-11-14T21:53:55.526Z,26.20
2022-11-14T21:56:27.786Z,30.93
2022-11-14T21:59:14.124Z,28.17
2022-11-14T22:02:04.276Z,32.33
2022-11-14T22:04:31.483Z,22.50
2022-11-14T22:06:59.290Z,33.20
2022-11-14T22:09:29.480Z,37.73
2022-11-14T22:11:56.563Z,28.80
2022-11-14T22:14:23.448Z,41.40
2022-11-14T22:16:50.075Z,36.50
2022-11-14T22:19:16.698Z,32.83
2022-11-14T22:21:43.135Z,23.73
2022-11-14T22:24:09.609Z,33.00
2022-11-14T22:26:40.758Z,34.80
2022-11-14T22:29:08.221Z,26.43
2022-11-14T22:31:34.960Z,27.03
2022-11-14T22:34:01.571Z,26.80
2022-11-14T22:36:28.286Z,33.23
2022-11-14T22:38:56.115Z,31.17
2022-11-14T22:41:31.843Z,43.23
2022-11-14T22:43:58.843Z,21.87
2022-11-14T22:46:25.463Z,19.80
2022-11-14T22:48:51.982Z,25.30
2022-11-14T22:51:23.405Z,24.13
2022-11-14T22:53:52.137Z,28.27
2022-11-14T22:56:21.824Z,22.53
2022-11-14T22:58:48.792Z,24.47
2022-11-14T23:01:20.370Z,27.40
2022-11-14T23:03:50.229Z,22.97
2022-11-14T23:06:18.821Z,21.70
2022-11-14T23:08:45.524Z,19.93
2022-11-14T23:11:23.553Z,24.40
2022-11-14T23:13:52.274Z,17.47
2022-11-14T23:16:20.898Z,22.70
2022-11-14T23:18:47.965Z,28.13
2022-11-14T23:21:16.857Z,25.20
2022-11-14T23:23:43.339Z,23.77
2022-11-14T23:26:14.653Z,16.77
2022-11-14T23:28:41.602Z,27.60
2022-11-14T23:31:09.433Z,26.63
2022-11-14T23:33:36.013Z,25.83
2022-11-14T23:36:02.844Z,17.73
2022-11-14T23:38:32.176Z,16.90
2022-11-14T23:41:00.700Z,15.63
2022-11-14T23:43:28.172Z,26.47
2022-11-14T23:45:55.384Z,21.20
2022-11-14T23:48:22.626Z,12.20
2022-11-14T23:50:54.563Z,14.40
2022-11-14T23:53:21.545Z,38.03
2022-11-14T23:55:55.811Z,17.63
2022-11-14T23:58:23.444Z,19.63
